Time;durP1;ratioP1;P1;durP2;ratioP2;P2;SDS_P1;SDS_P2;PMS_P1;PMS_P2;Temp;Humidity;BMP_temperature;BMP_pressure;BME280_temperature;BME280_humidity;BME280_pressure;Samples;Min_cycle;Max_cycle;Signal;HPM_P1;HPM_P2
2023/05/02 00:00:35;;;;;;;12.07;9.80;;;17.70;99.90;;;;;;4991886;28;20854;-83
2023/05/02 00:03:01;;;;;;;10.80;9.70;;;17.60;99.90;;;;;;4991939;28;20546;-90
2023/05/02 00:05:27;;;;;;;10.73;9.63;;;17.70;99.90;;;;;;4991398;28;20478;-80
2023/05/02 00:07:53;;;;;;;12.57;11.30;;;17.60;99.90;;;;;;4976755;28;20423;-90
2023/05/02 00:10:19;;;;;;;12.40;10.70;;;17.60;99.90;;;;;;4991180;28;20434;-89
2023/05/02 00:12:45;;;;;;;14.83;10.07;;;17.60;99.90;;;;;;4976559;28;20196;-89
2023/05/02 00:15:10;;;;;;;11.20;10.10;;;17.50;99.90;;;;;;4976362;28;20438;-90
2023/05/02 00:17:40;;;;;;;11.93;10.73;;;17.50;99.90;;;;;;4976424;28;20462;-80
2023/05/02 00:20:10;;;;;;;13.83;10.50;;;17.40;99.90;;;;;;4976381;28;20188;-90
2023/05/02 00:22:36;;;;;;;11.33;10.23;;;17.40;99.90;;;;;;4976560;28;20510;-90
2023/05/02 00:25:03;;;;;;;10.17;9.17;;;17.40;99.90;;;;;;4975186;28;20438;-84
2023/05/02 00:27:29;;;;;;;11.23;9.97;;;17.40;99.90;;;;;;4976069;28;20406;-80
2023/05/02 00:29:55;;;;;;;11.70;10.50;;;17.30;99.90;;;;;;4976344;28;20908;-80
2023/05/02 00:32:20;;;;;;;11.30;9.83;;;17.30;99.90;;;;;;4975629;28;20464;-80
2023/05/02 00:34:46;;;;;;;10.70;9.43;;;17.30;99.90;;;;;;4975455;28;20192;-80
2023/05/02 00:37:12;;;;;;;10.10;9.07;;;17.30;99.90;;;;;;4976249;28;20204;-88
2023/05/02 00:39:38;;;;;;;11.50;10.30;;;17.20;99.90;;;;;;4991526;28;20192;-89
2023/05/02 00:42:04;;;;;;;11.30;10.20;;;17.20;99.90;;;;;;4976048;28;20413;-80
2023/05/02 00:44:30;;;;;;;10.37;9.37;;;17.20;99.90;;;;;;4974813;28;20181;-80
2023/05/02 00:46:57;;;;;;;11.27;9.80;;;17.20;99.90;;;;;;4991550;28;20438;-90
2023/05/02 00:49:23;;;;;;;10.97;9.87;;;17.10;99.90;;;;;;4976272;28;20177;-80
2023/05/02 00:51:49;;;;;;;11.50;9.80;;;17.10;99.90;;;;;;4990762;28;20805;-80
2023/05/02 00:54:15;;;;;;;10.10;9.10;;;17.10;99.90;;;;;;4976318;28;20422;-85
2023/05/02 00:56:41;;;;;;;10.40;9.40;;;17.10;99.90;;;;;;4975806;28;20220;-80
2023/05/02 00:59:09;;;;;;;10.10;9.20;;;17.10;99.90;;;;;;4975981;28;20180;-80
2023/05/02 01:01:52;;;;;;;9.53;8.60;;;17.10;99.90;;;;;;4974608;28;20801;-90
2023/05/02 01:04:49;;;;;;;9.77;8.80;;;17.10;99.90;;;;;;4990402;28;20466;-80
2023/05/02 01:07:30;;;;;;;10.40;9.23;;;17.00;99.90;;;;;;4975812;28;20410;-90
2023/05/02 01:10:28;;;;;;;10.23;8.27;;;17.00;99.90;;;;;;4975644;28;20439;-79
2023/05/02 01:13:16;;;;;;;9.87;8.97;;;17.00;99.90;;;;;;4975692;28;21003;-90
2023/05/02 01:15:44;;;;;;;9.40;8.50;;;16.90;99.90;;;;;;4990274;28;20497;-86
2023/05/02 01:18:12;;;;;;;10.80;9.20;;;16.90;99.90;;;;;;4974313;28;20438;-88
2023/05/02 01:20:42;;;;;;;9.30;7.73;;;16.90;99.90;;;;;;4990517;28;20977;-89
2023/05/02 01:23:22;;;;;;;9.53;8.47;;;16.90;99.90;;;;;;4974648;28;20902;-80
2023/05/02 01:26:15;;;;;;;9.33;8.07;;;16.90;99.90;;;;;;4990455;28;20441;-84
2023/05/02 01:28:58;;;;;;;8.43;7.63;;;16.80;99.90;;;;;;4990268;28;20478;-90
2023/05/02 01:31:26;;;;;;;9.37;8.47;;;16.80;99.90;;;;;;4990411;28;20817;-80
2023/05/02 01:33:55;;;;;;;8.97;8.07;;;16.80;99.90;;;;;;4990431;28;20422;-80
2023/05/02 01:36:24;;;;;;;8.47;7.57;;;16.80;99.90;;;;;;4990526;28;20474;-80
2023/05/02 01:38:51;;;;;;;8.70;7.80;;;16.80;99.90;;;;;;4974246;28;20450;-80
2023/05/02 01:41:18;;;;;;;8.03;7.23;;;16.70;99.90;;;;;;4990062;28;20460;-87
2023/05/02 01:43:45;;;;;;;9.67;7.77;;;16.70;99.90;;;;;;4990361;28;20438;-79
2023/05/02 01:46:14;;;;;;;8.63;7.80;;;16.70;99.90;;;;;;4973756;28;20805;-90
2023/05/02 01:48:43;;;;;;;10.40;7.97;;;16.70;99.90;;;;;;4990209;28;20462;-86
2023/05/02 01:51:11;;;;;;;8.97;8.10;;;16.60;99.90;;;;;;4973943;28;20525;-80
2023/05/02 01:53:38;;;;;;;8.30;7.43;;;16.60;99.90;;;;;;4975358;28;20483;-80
2023/05/02 01:56:05;;;;;;;7.93;7.00;;;16.60;99.90;;;;;;4975129;28;20866;-80
2023/05/02 01:58:32;;;;;;;8.70;7.90;;;16.60;99.90;;;;;;4975452;28;20517;-90
2023/05/02 02:01:00;;;;;;;8.50;7.70;;;16.60;99.90;;;;;;4973747;28;20457;-90
2023/05/02 02:03:28;;;;;;;9.00;8.10;;;16.50;99.90;;;;;;4973535;28;20422;-80
2023/05/02 02:05:55;;;;;;;12.60;8.50;;;16.50;99.90;;;;;;4975312;28;20927;-80
2023/05/02 02:08:21;;;;;;;8.40;7.47;;;16.40;99.90;;;;;;4975342;28;20529;-80
2023/05/02 02:10:56;;;;;;;10.37;8.83;;;16.40;99.90;;;;;;4974796;28;20422;-89
2023/05/02 02:13:30;;;;;;;9.40;8.33;;;16.30;99.90;;;;;;4973913;28;20426;-80
2023/05/02 02:16:00;;;;;;;8.73;7.93;;;16.20;99.90;;;;;;4974778;28;21044;-80
2023/05/02 02:18:28;;;;;;;9.53;8.43;;;16.10;99.90;;;;;;4975310;28;20923;-80
2023/05/02 02:20:56;;;;;;;9.70;8.67;;;16.10;99.90;;;;;;4974708;28;20448;-79
2023/05/02 02:23:26;;;;;;;10.30;8.37;;;16.10;99.90;;;;;;4973553;28;20449;-79
2023/05/02 02:25:54;;;;;;;9.80;8.83;;;16.10;99.90;;;;;;4990478;28;20438;-90
2023/05/02 02:28:20;;;;;;;10.37;8.80;;;16.10;99.90;;;;;;4975239;28;20459;-85
2023/05/02 02:30:45;;;;;;;9.30;8.40;;;16.10;99.90;;;;;;4973627;28;20430;-80
2023/05/02 02:33:11;;;;;;;9.67;8.60;;;16.10;99.90;;;;;;4974938;28;20217;-90
2023/05/02 02:35:43;;;;;;;7.60;7.00;;;16.10;99.90;;;;;;4993173;28;20208;-89
2023/05/02 02:38:44;;;;;;;9.10;8.17;;;16.00;99.90;;;;;;4978447;28;20219;-80
2023/05/02 02:41:19;;;;;;;8.77;7.60;;;16.00;99.90;;;;;;4978225;28;20444;-90
2023/05/02 02:44:11;;;;;;;8.23;7.40;;;15.90;99.90;;;;;;4993256;28;20512;-80
2023/05/02 02:46:37;;;;;;;8.67;7.87;;;15.90;99.90;;;;;;4977160;28;20839;-80
2023/05/02 02:49:24;;;;;;;12.97;8.23;;;15.90;99.90;;;;;;4979526;28;20484;-88
2023/05/02 02:51:58;;;;;;;10.67;8.37;;;15.90;99.90;;;;;;4978048;28;20204;-89
2023/05/02 02:54:43;;;;;;;10.27;8.13;;;15.80;99.90;;;;;;4978801;28;20414;-80
2023/05/02 02:57:44;;;;;;;8.03;7.23;;;15.70;99.90;;;;;;4977928;28;20458;-89
2023/05/02 03:00:20;;;;;;;9.80;7.23;;;15.70;99.90;;;;;;4992962;28;20541;-89
2023/05/02 03:02:47;;;;;;;8.77;7.83;;;15.70;99.90;;;;;;4976678;28;20437;-79
2023/05/02 03:05:13;;;;;;;11.63;7.87;;;15.60;99.90;;;;;;4977987;28;20486;-84
2023/05/02 03:07:40;;;;;;;8.63;7.77;;;15.60;99.90;;;;;;4977899;28;20561;-79
2023/05/02 03:10:06;;;;;;;9.83;7.63;;;15.60;99.90;;;;;;4977663;28;20439;-80
2023/05/02 03:12:32;;;;;;;7.73;6.93;;;15.60;99.90;;;;;;4977793;28;20449;-80
2023/05/02 03:15:39;;;;;;;10.00;7.93;;;15.60;99.90;;;;;;4977776;28;20430;-79
2023/05/02 03:18:05;;;;;;;13.40;6.60;;;15.60;99.90;;;;;;4976648;28;20622;-80
2023/05/02 03:20:31;;;;;;;9.17;8.23;;;15.60;99.90;;;;;;4976432;28;20526;-79
2023/05/02 03:22:56;;;;;;;8.73;7.60;;;15.60;99.90;;;;;;4977787;28;20275;-89
2023/05/02 03:25:22;;;;;;;8.50;7.20;;;15.60;99.90;;;;;;4977410;28;20275;-80
2023/05/02 03:27:48;;;;;;;11.20;7.43;;;15.60;99.90;;;;;;4976323;28;20656;-79
2023/05/02 03:30:14;;;;;;;13.90;8.43;;;15.60;99.90;;;;;;4992458;28;20887;-80
2023/05/02 03:32:39;;;;;;;8.57;7.77;;;15.60;99.90;;;;;;4977594;28;20646;-88
2023/05/02 03:35:05;;;;;;;8.33;6.90;;;15.60;99.90;;;;;;4992910;28;20283;-80
2023/05/02 03:37:33;;;;;;;7.37;6.73;;;15.70;99.90;;;;;;4993190;28;20212;-89
2023/05/02 03:39:59;;;;;;;7.70;7.00;;;15.60;99.90;;;;;;4976205;28;20436;-89
2023/05/02 03:42:25;;;;;;;11.33;7.77;;;15.70;99.90;;;;;;4977234;28;20418;-88
2023/05/02 03:44:53;;;;;;;8.00;7.10;;;15.70;99.90;;;;;;4977052;28;20438;-89
2023/05/02 03:47:19;;;;;;;9.10;8.20;;;15.70;99.90;;;;;;4991278;28;20721;-85
2023/05/02 03:49:45;;;;;;;9.53;6.80;;;15.70;99.90;;;;;;4977383;28;20521;-80
2023/05/02 03:52:11;;;;;;;6.87;6.07;;;15.70;99.90;;;;;;4976997;28;20415;-88
2023/05/02 03:54:37;;;;;;;8.37;6.87;;;15.60;99.90;;;;;;4977672;28;20544;-80
2023/05/02 03:57:03;;;;;;;7.97;6.70;;;15.60;99.90;;;;;;4976842;28;20466;-88
2023/05/02 03:59:33;;;;;;;8.60;7.70;;;15.60;99.90;;;;;;4977457;28;20184;-89
2023/05/02 04:01:58;;;;;;;7.63;6.50;;;15.60;99.90;;;;;;4976860;28;20966;-88
2023/05/02 04:04:24;;;;;;;7.97;7.17;;;15.50;99.90;;;;;;4976704;28;20458;-88
2023/05/02 04:06:50;;;;;;;8.47;6.20;;;15.50;99.90;;;;;;4988379;28;20204;-80
2023/05/02 04:09:17;;;;;;;7.03;6.37;;;15.60;99.90;;;;;;4975531;28;20630;-89
2023/05/02 04:11:43;;;;;;;7.00;6.30;;;15.70;99.90;;;;;;5008767;28;20472;-80
2023/05/02 04:14:09;;;;;;;7.13;6.50;;;15.80;99.90;;;;;;5009338;28;20422;-80
2023/05/02 04:16:35;;;;;;;6.90;6.30;;;15.90;99.90;;;;;;4975332;28;20713;-88
2023/05/02 04:19:00;;;;;;;12.07;7.50;;;16.00;99.90;;;;;;4975014;28;20438;-80
2023/05/02 04:21:26;;;;;;;7.83;6.90;;;16.10;99.90;;;;;;4976046;28;20192;-88
2023/05/02 04:23:52;;;;;;;7.17;6.47;;;16.20;99.90;;;;;;4975957;28;20185;-80
2023/05/02 04:26:17;;;;;;;7.77;7.00;;;16.30;99.90;;;;;;4975062;28;20662;-87
2023/05/02 04:28:43;;;;;;;7.50;6.80;;;16.30;99.90;;;;;;4989861;28;20195;-79
2023/05/02 04:31:09;;;;;;;8.80;7.90;;;16.40;99.90;;;;;;4995391;28;20278;-80
2023/05/02 04:33:35;;;;;;;7.70;6.90;;;16.30;99.90;;;;;;4994705;28;20180;-80
2023/05/02 04:36:01;;;;;;;10.73;8.20;;;16.40;99.90;;;;;;4984481;28;20841;-89
2023/05/02 04:38:26;;;;;;;9.50;6.47;;;16.30;99.90;;;;;;4974917;28;20193;-88
2023/05/02 04:40:52;;;;;;;7.73;6.93;;;16.20;99.90;;;;;;4978545;28;20560;-88
2023/05/02 04:43:18;;;;;;;11.40;7.13;;;16.20;99.90;;;;;;5000504;28;20180;-80
2023/05/02 04:45:43;;;;;;;10.93;7.00;;;16.10;99.90;;;;;;4992986;28;20231;-80
2023/05/02 04:48:09;;;;;;;8.23;7.20;;;16.10;99.90;;;;;;4992792;28;20318;-80
2023/05/02 04:50:35;;;;;;;7.83;6.97;;;16.00;99.90;;;;;;4972967;28;20204;-80
2023/05/02 04:53:01;;;;;;;7.47;6.77;;;16.00;99.90;;;;;;4971027;28;20798;-87
2023/05/02 04:55:26;;;;;;;8.00;6.60;;;16.00;99.90;;;;;;4971789;28;20279;-79
2023/05/02 04:57:52;;;;;;;7.43;6.73;;;16.00;99.90;;;;;;4972965;28;21022;-80
2023/05/02 05:00:18;;;;;;;7.50;6.80;;;16.00;99.90;;;;;;4972868;28;20283;-88
2023/05/02 05:02:44;;;;;;;7.53;6.83;;;15.90;99.90;;;;;;4979509;28;20198;-80
2023/05/02 05:05:09;;;;;;;8.20;6.30;;;15.90;99.90;;;;;;4983154;28;20482;-80
2023/05/02 05:07:35;;;;;;;8.43;6.43;;;15.90;99.90;;;;;;4981742;28;20556;-88
2023/05/02 05:10:01;;;;;;;6.90;6.20;;;15.80;99.90;;;;;;4986812;28;20235;-88
2023/05/02 05:12:26;;;;;;;7.20;5.83;;;15.90;99.90;;;;;;4995805;28;20457;-80
2023/05/02 05:14:52;;;;;;;7.57;6.87;;;16.00;99.90;;;;;;4987914;28;20184;-88
2023/05/02 05:17:18;;;;;;;7.70;7.00;;;16.00;99.90;;;;;;4983741;28;20243;-88
2023/05/02 05:19:44;;;;;;;6.43;5.80;;;16.00;99.90;;;;;;4979327;28;20536;-88
2023/05/02 05:22:09;;;;;;;8.23;6.27;;;16.00;99.90;;;;;;4975397;28;20215;-87
2023/05/02 05:24:35;;;;;;;7.17;6.47;;;16.00;99.90;;;;;;4988555;28;20204;-80
2023/05/02 05:27:01;;;;;;;9.33;6.80;;;16.00;99.90;;;;;;4993860;28;20208;-86
2023/05/02 05:29:29;;;;;;;7.60;6.80;;;16.00;99.90;;;;;;4989693;28;20238;-79
2023/05/02 05:31:55;;;;;;;8.47;6.50;;;16.10;99.90;;;;;;4988519;28;20791;-80
2023/05/02 05:34:21;;;;;;;9.63;6.07;;;16.10;99.90;;;;;;4982993;28;20504;-88
2023/05/02 05:36:46;;;;;;;9.33;6.60;;;16.10;99.90;;;;;;4983616;28;20223;-79
2023/05/02 05:39:12;;;;;;;8.30;6.60;;;16.20;99.90;;;;;;4977438;28;20192;-89
2023/05/02 05:41:38;;;;;;;6.57;5.97;;;16.20;99.90;;;;;;4970449;28;20251;-88
2023/05/02 05:44:04;;;;;;;90.70;48.57;;;16.30;99.90;;;;;;4971524;28;20216;-79
2023/05/02 05:46:29;;;;;;;9.10;6.00;;;16.30;99.90;;;;;;4980162;28;20207;-88
2023/05/02 05:48:55;;;;;;;14.67;6.60;;;16.40;99.90;;;;;;4989703;28;20997;-80
2023/05/02 05:51:21;;;;;;;7.47;6.67;;;16.50;99.90;;;;;;4985201;28;20449;-88
2023/05/02 05:53:47;;;;;;;7.83;6.80;;;16.50;99.90;;;;;;4970711;28;20212;-88
2023/05/02 05:56:13;;;;;;;7.50;5.80;;;16.60;99.90;;;;;;4974925;28;20216;-84
2023/05/02 05:58:39;;;;;;;6.33;5.43;;;16.70;99.90;;;;;;4984878;28;20191;-80
2023/05/02 06:01:05;;;;;;;6.23;5.73;;;16.80;99.90;;;;;;4981524;28;20986;-80
2023/05/02 06:03:31;;;;;;;7.13;5.73;;;16.90;99.90;;;;;;4982851;28;20544;-79
2023/05/02 06:05:56;;;;;;;9.63;7.07;;;17.00;99.90;;;;;;4978852;28;20580;-79
2023/05/02 06:08:22;;;;;;;6.50;5.90;;;17.10;99.90;;;;;;4987954;28;20188;-79
2023/05/02 06:10:48;;;;;;;7.93;5.43;;;17.20;99.90;;;;;;4987486;28;20218;-79
2023/05/02 06:13:14;;;;;;;6.27;5.53;;;17.20;99.90;;;;;;4987856;28;20533;-89
2023/05/02 06:15:40;;;;;;;9.43;5.60;;;17.30;99.90;;;;;;4987335;28;20201;-80
2023/05/02 06:18:05;;;;;;;6.30;5.70;;;17.40;99.90;;;;;;4980642;28;20454;-80
2023/05/02 06:20:31;;;;;;;7.53;5.73;;;17.50;99.90;;;;;;4980037;28;20477;-89
2023/05/02 06:22:57;;;;;;;6.90;5.73;;;17.60;99.90;;;;;;4990978;28;20558;-80
2023/05/02 06:25:22;;;;;;;8.07;5.57;;;17.70;99.90;;;;;;4992287;28;20281;-89
2023/05/02 06:27:49;;;;;;;10.33;7.97;;;17.80;99.90;;;;;;4992736;28;20184;-80
2023/05/02 06:30:15;;;;;;;7.47;5.70;;;17.90;99.90;;;;;;4978923;28;20204;-89
2023/05/02 06:32:42;;;;;;;8.07;6.30;;;18.00;99.90;;;;;;4982032;28;20464;-81
2023/05/02 06:35:09;;;;;;;5.27;4.73;;;18.00;99.90;;;;;;4973991;28;20288;-89
2023/05/02 06:37:35;;;;;;;6.30;5.70;;;18.00;99.90;;;;;;4982012;28;20519;-80
2023/05/02 06:40:01;;;;;;;8.33;5.30;;;18.20;99.90;;;;;;4986625;28;20544;-90
2023/05/02 06:42:28;;;;;;;6.33;5.60;;;18.30;99.90;;;;;;4975864;28;20180;-80
2023/05/02 06:44:54;;;;;;;10.53;5.50;;;18.40;99.90;;;;;;4974053;28;20424;-81
2023/05/02 06:47:20;;;;;;;7.10;5.27;;;18.50;99.90;;;;;;4974550;28;20414;-80
2023/05/02 06:49:46;;;;;;;7.53;6.00;;;18.60;99.90;;;;;;4985060;28;20665;-81
2023/05/02 06:52:12;;;;;;;6.03;4.80;;;18.80;99.90;;;;;;4994035;28;20422;-90
2023/05/02 06:54:38;;;;;;;4.93;4.50;;;18.90;99.80;;;;;;5009467;28;20239;-90
2023/05/02 06:57:04;;;;;;;5.83;4.77;;;19.00;99.60;;;;;;4986347;28;20482;-83
2023/05/02 06:59:29;;;;;;;8.57;5.23;;;19.10;98.90;;;;;;4991582;28;20463;-81
2023/05/02 07:01:55;;;;;;;10.13;4.87;;;19.20;98.60;;;;;;4981072;28;20220;-81
2023/05/02 07:04:21;;;;;;;6.30;5.07;;;19.40;98.50;;;;;;4980656;28;20499;-91
2023/05/02 07:06:46;;;;;;;9.97;5.37;;;19.40;98.20;;;;;;4973530;28;20194;-81
2023/05/02 07:09:12;;;;;;;8.43;4.60;;;19.50;98.40;;;;;;4988522;28;20237;-90
2023/05/02 07:11:38;;;;;;;6.17;5.00;;;19.60;97.50;;;;;;4981160;28;20216;-80
2023/05/02 07:14:04;;;;;;;5.57;5.07;;;19.70;97.50;;;;;;4978293;28;20289;-81
2023/05/02 07:16:29;;;;;;;5.47;4.97;;;19.80;97.80;;;;;;4990842;28;20576;-89
2023/05/02 07:18:55;;;;;;;8.73;5.00;;;20.00;97.80;;;;;;4994910;28;20191;-83
2023/05/02 07:21:21;;;;;;;6.27;4.80;;;20.00;97.50;;;;;;4982479;28;20214;-90
2023/05/02 07:23:47;;;;;;;8.43;5.40;;;20.10;97.30;;;;;;4985908;28;20192;-88
2023/05/02 07:26:12;;;;;;;6.77;4.50;;;20.10;97.30;;;;;;4978979;28;20453;-90
2023/05/02 07:28:38;;;;;;;9.37;5.70;;;20.10;97.50;;;;;;4987234;28;20209;-81
2023/05/02 07:31:05;;;;;;;4.87;4.00;;;20.20;97.90;;;;;;4991430;28;20206;-81
2023/05/02 07:33:31;;;;;;;7.83;4.73;;;20.40;97.10;;;;;;4975367;28;20177;-81
2023/05/02 07:35:56;;;;;;;6.40;4.40;;;20.50;97.10;;;;;;4975087;28;20457;-81
2023/05/02 07:38:22;;;;;;;43.47;28.63;;;20.60;96.40;;;;;;4984156;28;20197;-90
2023/05/02 07:40:48;;;;;;;14.03;4.97;;;20.70;96.20;;;;;;4971723;28;20212;-90
2023/05/02 07:43:14;;;;;;;4.93;4.40;;;20.80;96.20;;;;;;4976477;28;20191;-81
2023/05/02 07:45:40;;;;;;;5.53;5.03;;;20.90;95.30;;;;;;4977508;28;20210;-80
2023/05/02 07:48:06;;;;;;;7.30;4.70;;;20.90;95.50;;;;;;4974012;28;20427;-89
2023/05/02 07:50:32;;;;;;;6.37;4.47;;;21.00;95.70;;;;;;4979944;28;20225;-89
2023/05/02 07:52:57;;;;;;;6.63;4.13;;;21.10;96.00;;;;;;4990591;28;20191;-81
2023/05/02 07:55:25;;;;;;;10.77;4.80;;;21.20;95.70;;;;;;4980548;28;20673;-81
2023/05/02 07:57:51;;;;;;;17.93;5.63;;;21.40;95.70;;;;;;4983965;28;20707;-81
2023/05/02 08:00:18;;;;;;;7.93;4.50;;;21.50;94.50;;;;;;4987581;28;20806;-90
2023/05/02 08:02:45;;;;;;;10.67;4.37;;;21.50;94.70;;;;;;4984034;28;20434;-80
2023/05/02 08:05:11;;;;;;;18.53;5.03;;;21.60;94.70;;;;;;4979879;28;20989;-90
2023/05/02 08:07:36;;;;;;;5.90;4.93;;;21.70;94.50;;;;;;4981852;28;20442;-90
2023/05/02 08:10:03;;;;;;;6.87;4.80;;;21.70;94.30;;;;;;4973758;28;20464;-80
2023/05/02 08:12:28;;;;;;;5.20;4.70;;;21.80;94.70;;;;;;4985316;28;20426;-81
2023/05/02 08:14:54;;;;;;;15.10;5.13;;;21.70;94.60;;;;;;4984052;28;20448;-81
2023/05/02 08:17:20;;;;;;;9.40;6.13;;;21.80;94.20;;;;;;4985269;28;20216;-81
2023/05/02 08:19:46;;;;;;;7.90;4.77;;;21.80;93.90;;;;;;4981041;28;20189;-89
2023/05/02 08:22:12;;;;;;;15.07;5.10;;;21.90;93.90;;;;;;4980973;28;20472;-88
2023/05/02 08:24:37;;;;;;;12.40;4.83;;;22.00;92.70;;;;;;4980583;28;20850;-81
2023/05/02 08:27:03;;;;;;;7.57;4.63;;;22.00;93.20;;;;;;4986523;28;20715;-88
2023/05/02 08:29:30;;;;;;;6.97;4.80;;;22.00;93.00;;;;;;4981655;28;20192;-81
2023/05/02 08:31:56;;;;;;;16.23;4.93;;;22.00;93.10;;;;;;4990112;28;20794;-89
2023/05/02 08:34:22;;;;;;;13.80;5.10;;;22.00;93.40;;;;;;4976645;28;20481;-81
2023/05/02 08:36:47;;;;;;;12.47;4.63;;;22.00;93.50;;;;;;4978716;28;20507;-88
2023/05/02 08:39:13;;;;;;;17.37;5.17;;;22.00;93.40;;;;;;4981159;28;20725;-91
2023/05/02 08:41:39;;;;;;;11.37;5.33;;;22.10;93.20;;;;;;4978452;28;20200;-81
2023/05/02 08:44:06;;;;;;;15.07;4.87;;;22.10;93.20;;;;;;4982254;28;20434;-88
2023/05/02 08:46:35;;;;;;;10.00;4.80;;;22.20;93.60;;;;;;4989553;28;20288;-81
2023/05/02 08:49:02;;;;;;;14.70;5.53;;;22.20;93.80;;;;;;4978185;28;20507;-89
2023/05/02 08:51:31;;;;;;;8.10;5.13;;;22.30;93.30;;;;;;4991510;28;20471;-81
2023/05/02 08:53:57;;;;;;;8.47;4.80;;;22.30;93.30;;;;;;4991440;28;20421;-81
2023/05/02 08:56:24;;;;;;;10.03;5.50;;;22.40;93.50;;;;;;4986286;28;21003;-81
2023/05/02 08:58:49;;;;;;;11.40;5.40;;;22.50;93.10;;;;;;4988359;28;20442;-81
2023/05/02 09:01:18;;;;;;;10.70;5.10;;;22.60;93.20;;;;;;4981758;28;20926;-81
2023/05/02 09:03:45;;;;;;;11.60;5.00;;;22.60;92.90;;;;;;4975391;28;20232;-81
2023/05/02 09:06:15;;;;;;;8.17;4.40;;;22.60;92.90;;;;;;4978498;28;20589;-90
2023/05/02 09:08:42;;;;;;;8.70;4.90;;;22.60;93.70;;;;;;4986609;28;20478;-90
2023/05/02 09:11:09;;;;;;;7.23;4.40;;;22.80;93.00;;;;;;4972059;28;20450;-81
2023/05/02 09:13:37;;;;;;;14.50;5.63;;;22.90;93.20;;;;;;4987561;28;20962;-90
2023/05/02 09:16:14;;;;;;;19.53;5.77;;;23.00;91.70;;;;;;4981464;28;20468;-82
2023/05/02 09:18:47;;;;;;;27.50;6.00;;;23.10;91.50;;;;;;4984704;28;20824;-90
2023/05/02 09:21:15;;;;;;;18.77;5.77;;;23.20;90.70;;;;;;4976954;28;20474;-90
2023/05/02 09:23:48;;;;;;;8.77;4.87;;;23.20;90.90;;;;;;4969884;28;20448;-90
2023/05/02 09:26:31;;;;;;;11.47;5.30;;;23.20;91.10;;;;;;4972627;28;20465;-82
2023/05/02 09:28:58;;;;;;;8.90;4.30;;;23.20;90.90;;;;;;4978320;28;20526;-80
2023/05/02 09:31:27;;;;;;;12.90;4.97;;;23.20;91.00;;;;;;4979856;28;20818;-90
2023/05/02 09:33:53;;;;;;;12.43;5.00;;;23.20;90.80;;;;;;4984271;28;20478;-79
2023/05/02 09:36:20;;;;;;;12.23;5.37;;;23.20;90.50;;;;;;4984630;28;20887;-88
2023/05/02 09:38:48;;;;;;;10.37;4.90;;;23.30;91.00;;;;;;4989322;28;20843;-80
2023/05/02 09:41:16;;;;;;;11.20;5.20;;;23.40;91.20;;;;;;4976237;28;20471;-88
2023/05/02 09:43:42;;;;;;;10.77;4.63;;;23.50;90.80;;;;;;4983943;28;20439;-80
2023/05/02 09:46:09;;;;;;;12.50;5.23;;;23.60;90.50;;;;;;4981992;28;20447;-87
2023/05/02 09:48:56;;;;;;;11.40;5.20;;;23.60;90.60;;;;;;4983581;28;20930;-88
2023/05/02 09:51:23;;;;;;;12.57;4.70;;;23.60;90.60;;;;;;4970880;28;20452;-79
2023/05/02 09:53:50;;;;;;;6.20;4.40;;;23.80;91.30;;;;;;4985790;28;20483;-79
2023/05/02 09:56:16;;;;;;;12.80;5.10;;;23.90;90.00;;;;;;4993651;28;20463;-79
2023/05/02 09:58:42;;;;;;;8.13;5.40;;;23.80;89.90;;;;;;4988737;28;20930;-87
2023/05/02 10:01:14;;;;;;;14.63;4.80;;;23.80;89.30;;;;;;4998933;28;20480;-80
2023/05/02 10:03:40;;;;;;;8.80;4.50;;;23.50;90.30;;;;;;4988178;28;20855;-80
2023/05/02 10:06:08;;;;;;;13.67;5.03;;;23.60;89.20;;;;;;4994897;28;20513;-80
2023/05/02 10:08:34;;;;;;;12.00;5.03;;;23.60;88.70;;;;;;4981525;28;20460;-87
2023/05/02 10:11:04;;;;;;;15.77;5.63;;;23.70;87.70;;;;;;4973696;28;20509;-80
2023/05/02 10:13:33;;;;;;;24.07;5.80;;;23.60;87.80;;;;;;4974406;28;20512;-80
2023/05/02 10:16:03;;;;;;;17.03;5.33;;;23.60;87.80;;;;;;4971580;28;20429;-88
2023/05/02 10:18:41;;;;;;;20.60;6.47;;;23.70;87.80;;;;;;4979869;28;20467;-88
2023/05/02 10:21:11;;;;;;;11.73;5.60;;;23.70;87.10;;;;;;4973465;28;20437;-91
2023/05/02 10:23:44;;;;;;;11.73;4.50;;;23.80;87.70;;;;;;4984949;28;20856;-82
2023/05/02 10:26:13;;;;;;;14.00;4.50;;;23.90;88.20;;;;;;4971639;28;20876;-91
2023/05/02 10:28:41;;;;;;;6.10;4.70;;;24.00;86.60;;;;;;4969466;28;20452;-91
2023/05/02 10:31:12;;;;;;;9.03;4.57;;;24.00;85.50;;;;;;4974069;28;20457;-92
2023/05/02 10:33:38;;;;;;;8.57;4.73;;;23.90;85.50;;;;;;4976027;28;20708;-91
2023/05/02 10:36:07;;;;;;;11.20;5.30;;;24.00;86.10;;;;;;4978820;28;20556;-82
2023/05/02 10:38:34;;;;;;;11.23;4.40;;;24.10;85.50;;;;;;4974919;28;20467;-90
2023/05/02 10:41:08;;;;;;;10.90;4.37;;;24.10;83.80;;;;;;4976636;28;20481;-90
2023/05/02 10:43:36;;;;;;;13.33;4.90;;;24.00;83.20;;;;;;4979563;28;20504;-82
2023/05/02 10:46:02;;;;;;;11.50;4.70;;;23.80;83.20;;;;;;4973221;28;21177;-90
2023/05/02 10:48:29;;;;;;;12.87;5.60;;;23.80;83.80;;;;;;4977102;28;20793;-91
2023/05/02 10:50:59;;;;;;;17.10;4.90;;;23.80;84.10;;;;;;4982944;28;20544;-82
2023/05/02 10:53:35;;;;;;;19.83;5.93;;;23.80;83.10;;;;;;4975805;28;20436;-89
2023/05/02 10:56:23;;;;;;;20.50;5.60;;;23.60;83.90;;;;;;4990827;28;20457;-91
2023/05/02 10:58:50;;;;;;;13.67;4.53;;;23.50;84.20;;;;;;4983646;28;20456;-82
2023/05/02 11:01:28;;;;;;;8.63;4.70;;;23.50;85.10;;;;;;4984202;28;20497;-91
2023/05/02 11:03:58;;;;;;;9.57;4.60;;;23.70;85.80;;;;;;4990671;28;20558;-82
2023/05/02 11:06:26;;;;;;;17.27;5.13;;;23.90;85.60;;;;;;4984648;28;20482;-91
2023/05/02 11:08:52;;;;;;;11.50;4.50;;;24.10;85.10;;;;;;4985066;28;20436;-82
2023/05/02 11:11:37;;;;;;;15.93;6.10;;;24.10;84.70;;;;;;4985125;28;20548;-82
2023/05/02 11:14:03;;;;;;;9.57;4.77;;;24.10;84.80;;;;;;4998856;28;20466;-89
2023/05/02 11:16:58;;;;;;;6.87;4.80;;;24.10;85.00;;;;;;4983988;28;20520;-82
2023/05/02 11:19:24;;;;;;;15.57;5.17;;;24.20;81.30;;;;;;4987041;28;20255;-91
2023/05/02 11:21:53;;;;;;;13.67;5.20;;;24.00;82.00;;;;;;4992574;28;21109;-82
2023/05/02 11:24:41;;;;;;;9.60;4.60;;;23.90;82.70;;;;;;4981063;28;20986;-91
2023/05/02 11:27:26;;;;;;;6.07;4.70;;;24.00;82.30;;;;;;4982691;28;20851;-82
2023/05/02 11:29:55;;;;;;;5.03;4.53;;;24.10;83.00;;;;;;4983881;28;20532;-83
2023/05/02 11:32:21;;;;;;;8.10;4.80;;;24.00;83.10;;;;;;4992260;28;20687;-89
2023/05/02 11:34:51;;;;;;;9.47;4.83;;;24.10;82.80;;;;;;4979354;28;20653;-87
2023/05/02 11:37:19;;;;;;;6.90;4.60;;;24.10;83.00;;;;;;4983108;28;20485;-81
2023/05/02 11:39:47;;;;;;;8.67;4.90;;;24.10;83.10;;;;;;4986192;28;20459;-90
2023/05/02 11:42:30;;;;;;;5.43;3.97;;;24.10;83.80;;;;;;4988093;28;20421;-81
2023/05/02 11:44:57;;;;;;;6.57;4.73;;;24.20;83.90;;;;;;4985467;28;21344;-89
2023/05/02 11:47:25;;;;;;;23.03;5.00;;;24.20;82.10;;;;;;4984591;28;20431;-90
2023/05/02 11:49:51;;;;;;;15.37;6.03;;;24.10;82.40;;;;;;4983944;28;20446;-81
2023/05/02 11:52:16;;;;;;;8.53;4.67;;;24.20;82.10;;;;;;4989233;28;20425;-81
2023/05/02 11:54:42;;;;;;;9.00;4.73;;;24.20;81.40;;;;;;4980668;28;20653;-89
2023/05/02 11:57:08;;;;;;;11.13;5.00;;;24.30;81.40;;;;;;4976252;28;20226;-87
2023/05/02 12:00:00;;;;;;;7.97;5.40;;;24.40;81.50;;;;;;4979136;28;20692;-88
2023/05/02 12:02:40;;;;;;;8.07;5.20;;;24.40;82.00;;;;;;4982612;28;20196;-89
2023/05/02 12:05:08;;;;;;;7.30;4.77;;;24.50;82.70;;;;;;4974422;28;20540;-89
2023/05/02 12:07:38;;;;;;;8.30;4.63;;;24.60;82.70;;;;;;4981159;28;20441;-89
2023/05/02 12:10:05;;;;;;;5.23;4.20;;;24.60;81.10;;;;;;4988584;28;20461;-81
2023/05/02 12:12:31;;;;;;;4.90;4.50;;;24.60;81.70;;;;;;4988750;28;20489;-90
2023/05/02 12:14:57;;;;;;;8.37;4.57;;;24.60;82.10;;;;;;4987417;28;20461;-88
2023/05/02 12:17:23;;;;;;;11.03;4.30;;;24.70;83.00;;;;;;4970905;28;20479;-81
2023/05/02 12:19:49;;;;;;;7.03;4.40;;;24.80;83.20;;;;;;4993930;28;20441;-90
2023/05/02 12:22:16;;;;;;;7.20;4.80;;;24.90;81.10;;;;;;4990842;28;20831;-88
2023/05/02 12:24:42;;;;;;;15.23;5.20;;;24.90;80.40;;;;;;4986507;28;20484;-89
2023/05/02 12:27:15;;;;;;;5.53;4.47;;;24.80;80.40;;;;;;4987033;28;20456;-89
2023/05/02 12:29:44;;;;;;;9.77;5.80;;;24.80;80.00;;;;;;4988826;28;20439;-81
2023/05/02 12:32:10;;;;;;;7.40;5.20;;;24.70;81.50;;;;;;4988060;28;20439;-90
2023/05/02 12:34:37;;;;;;;8.70;4.97;;;24.60;82.20;;;;;;4984775;28;20453;-89
2023/05/02 12:37:05;;;;;;;5.80;5.00;;;24.60;82.40;;;;;;5001570;28;20487;-81
2023/05/02 12:39:38;;;;;;;5.10;4.30;;;24.70;81.20;;;;;;4993256;28;20998;-82
2023/05/02 12:42:15;;;;;;;5.80;3.93;;;24.80;81.20;;;;;;4983262;28;20933;-82
2023/05/02 12:44:43;;;;;;;5.13;4.60;;;24.80;80.20;;;;;;4982344;28;20452;-91
2023/05/02 12:47:14;;;;;;;4.53;4.10;;;24.80;81.30;;;;;;4986432;28;20560;-90
2023/05/02 12:49:49;;;;;;;6.30;5.20;;;24.90;81.30;;;;;;4985676;28;20480;-81